createdAt,value
2019-05-29T00:02:31.405Z,98011.52
2019-05-29T00:05:35.873Z,98010.25
2019-05-29T00:08:40.325Z,98013.59
2019-05-29T00:11:44.765Z,98013.56
2019-05-29T00:14:49.211Z,98022.88
2019-05-29T00:17:53.665Z,98016.36
2019-05-29T00:20:58.124Z,98017.78
2019-05-29T00:24:02.577Z,98023.98
2019-05-29T00:27:07.388Z,98025.45
2019-05-29T00:30:13.467Z,98025.51
2019-05-29T00:33:18.361Z,98031.74
2019-05-29T00:36:22.876Z,98026.28
2019-05-29T00:39:27.328Z,98032.78
2019-05-29T00:42:31.769Z,98037.86
2019-05-29T00:45:36.219Z,98034.60
2019-05-29T00:48:40.676Z,98037.92
2019-05-29T00:51:45.462Z,98040.22
2019-05-29T00:54:49.904Z,98047.89
2019-05-29T00:57:54.607Z,98046.12
2019-05-29T01:00:59.065Z,98055.66
2019-05-29T01:04:03.525Z,98058.74
2019-05-29T01:07:07.979Z,98067.16
2019-05-29T01:10:13.228Z,98066.11
2019-05-29T01:13:17.678Z,98071.45
2019-05-29T01:16:22.143Z,98072.36
2019-05-29T01:19:26.601Z,98076.09
2019-05-29T01:22:31.095Z,98076.61
2019-05-29T01:25:35.546Z,98075.58
2019-05-29T01:28:39.990Z,98074.23
2019-05-29T01:31:44.450Z,98078.14
2019-05-29T01:34:49.225Z,98084.78
2019-05-29T01:37:53.995Z,98083.14
2019-05-29T01:40:58.416Z,98088.91
2019-05-29T01:44:03.045Z,98091.09
2019-05-29T01:47:07.496Z,98086.27
2019-05-29T01:50:12.457Z,98085.54
2019-05-29T01:53:17.685Z,98091.75
2019-05-29T01:56:23.823Z,98091.95
2019-05-29T01:59:28.482Z,98091.09
2019-05-29T02:02:33.245Z,98092.43
2019-05-29T02:05:37.698Z,98095.69
2019-05-29T02:08:42.140Z,98103.20
2019-05-29T02:11:46.660Z,98111.32
2019-05-29T02:14:51.110Z,98111.64
2019-05-29T02:17:55.548Z,98113.26
2019-05-29T02:21:00.021Z,98115.14
2019-05-29T02:24:04.531Z,98123.02
2019-05-29T02:27:09.060Z,98124.36
2019-05-29T02:30:14.130Z,98121.73
2019-05-29T02:33:19.605Z,98127.27
2019-05-29T02:36:24.736Z,98122.20
2019-05-29T02:39:30.448Z,98126.17
2019-05-29T02:42:34.893Z,98133.80
2019-05-29T02:45:53.941Z,98133.67
2019-05-29T02:48:45.570Z,98139.93
2019-05-29T02:51:50.572Z,98143.14
2019-05-29T02:54:55.019Z,98143.79
2019-05-29T02:57:59.467Z,98147.29
2019-05-29T03:01:03.925Z,98154.02
2019-05-29T03:04:08.391Z,98155.06
2019-05-29T03:07:12.832Z,98156.39
2019-05-29T03:10:17.350Z,98165.52
2019-05-29T03:13:23.091Z,98166.92
2019-05-29T03:16:28.776Z,98167.93
2019-05-29T03:19:34.670Z,98179.58
2019-05-29T03:22:39.817Z,98177.13
2019-05-29T03:25:44.280Z,98180.12
2019-05-29T03:28:48.733Z,98190.77
2019-05-29T03:31:53.183Z,98196.24
2019-05-29T03:34:57.927Z,98198.64
2019-05-29T03:38:02.385Z,98202.13
2019-05-29T03:41:06.849Z,98209.19
2019-05-29T03:44:11.309Z,98213.22
2019-05-29T03:47:15.747Z,98215.14
2019-05-29T03:50:20.477Z,98225.02
2019-05-29T03:53:27.055Z,98228.30
2019-05-29T03:56:32.604Z,98232.40
2019-05-29T03:59:37.515Z,98236.34
2019-05-29T04:02:42.195Z,98244.20
2019-05-29T04:05:46.973Z,98247.95
2019-05-29T04:08:51.426Z,98245.48
2019-05-29T04:11:56.354Z,98257.88
2019-05-29T04:15:00.803Z,98259.28
2019-05-29T04:18:06.897Z,98269.45
2019-05-29T04:21:12.595Z,98271.84
2019-05-29T04:24:19.289Z,98273.69
2019-05-29T04:27:29.935Z,98273.57
2019-05-29T04:30:39.145Z,98282.12
2019-05-29T04:33:43.883Z,98285.22
2019-05-29T04:36:48.341Z,98289.42
2019-05-29T04:39:52.865Z,98291.27
2019-05-29T04:42:57.795Z,98295.84
2019-05-29T04:46:02.508Z,98306.83
2019-05-29T04:49:07.009Z,98306.53
2019-05-29T04:52:11.469Z,98308.09
2019-05-29T04:55:16.186Z,98317.81
2019-05-29T04:58:20.645Z,98317.22
2019-05-29T05:01:25.100Z,98320.79
2019-05-29T05:04:29.553Z,98321.53
2019-05-29T05:07:35.276Z,98328.80
2019-05-29T05:10:41.548Z,98333.56
2019-05-29T05:13:46.580Z,98337.39
2019-05-29T05:16:51.049Z,98339.02
2019-05-29T05:19:55.499Z,98342.22
2019-05-29T05:22:59.952Z,98351.44
2019-05-29T05:26:04.473Z,98347.68
2019-05-29T05:29:08.993Z,98350.59
2019-05-29T05:32:13.771Z,98355.68
2019-05-29T05:35:18.245Z,98355.08
2019-05-29T05:38:22.694Z,98356.20
2019-05-29T05:41:27.144Z,98362.66
2019-05-29T05:44:32.754Z,98367.96
2019-05-29T05:47:49.976Z,98372.73
2019-05-29T05:50:43.447Z,98367.42
2019-05-29T05:53:48.234Z,98377.31
2019-05-29T05:56:53.688Z,98383.06
2019-05-29T05:59:58.606Z,98385.23
2019-05-29T06:03:03.055Z,98386.80
2019-05-29T06:06:07.507Z,98393.19
2019-05-29T06:09:12.032Z,98395.02
2019-05-29T06:12:16.490Z,98396.32
2019-05-29T06:15:21.347Z,98396.91
2019-05-29T06:18:25.804Z,98395.75
2019-05-29T06:21:30.252Z,98399.15
2019-05-29T06:24:35.062Z,98405.84
2019-05-29T06:27:39.640Z,98404.74
2019-05-29T06:30:45.096Z,98410.34
2019-05-29T06:33:49.700Z,98417.30
2019-05-29T06:36:54.140Z,98417.30
2019-05-29T06:39:58.599Z,98418.30
2019-05-29T06:43:03.044Z,98431.48
2019-05-29T06:46:07.496Z,98433.25
2019-05-29T06:49:11.958Z,98438.95
2019-05-29T06:52:16.406Z,98446.80
2019-05-29T06:55:20.874Z,98447.58
2019-05-29T06:58:25.339Z,98445.02
2019-05-29T07:01:29.781Z,98448.19
2019-05-29T07:04:34.234Z,98451.70
2019-05-29T07:07:40.166Z,98456.02
2019-05-29T07:10:44.814Z,98463.09
2019-05-29T07:13:50.586Z,98458.88
2019-05-29T07:16:56.396Z,98464.39
2019-05-29T07:20:04.071Z,98467.88
2019-05-29T07:23:07.591Z,98473.98
2019-05-29T07:26:12.062Z,98478.92
2019-05-29T07:29:16.815Z,98478.27
2019-05-29T07:32:21.264Z,98482.31
2019-05-29T07:35:25.726Z,98477.44
2019-05-29T07:38:30.242Z,98486.55
2019-05-29T07:41:34.685Z,98494.89
2019-05-29T07:44:39.958Z,98496.23
2019-05-29T07:47:44.840Z,98497.34
2019-05-29T07:51:04.465Z,98497.69
2019-05-29T07:53:55.932Z,98498.42
2019-05-29T07:57:00.337Z,98505.88
2019-05-29T08:00:08.243Z,98511.28
2019-05-29T08:03:12.758Z,98512.81
2019-05-29T08:06:17.479Z,98520.53
2019-05-29T08:09:22.014Z,98518.47
2019-05-29T08:12:26.750Z,98524.47
2019-05-29T08:15:31.210Z,98525.87
2019-05-29T08:18:35.673Z,98530.17
2019-05-29T08:21:40.963Z,98531.98
2019-05-29T08:24:47.765Z,98532.17
2019-05-29T08:27:52.459Z,98526.45
2019-05-29T08:30:57.168Z,98525.98
2019-05-29T08:34:01.621Z,98533.06
2019-05-29T08:37:07.450Z,98536.27
2019-05-29T08:40:13.817Z,98538.00
2019-05-29T08:43:18.547Z,98538.69
2019-05-29T08:46:23.012Z,98534.41
2019-05-29T08:49:27.451Z,98535.81
2019-05-29T08:52:31.900Z,98540.33
2019-05-29T08:55:36.352Z,98534.81
2019-05-29T08:58:42.772Z,98537.31
2019-05-29T09:01:48.632Z,98540.50
2019-05-29T09:04:54.915Z,98551.09
2019-05-29T09:07:59.526Z,98545.23
2019-05-29T09:11:03.998Z,98549.75
2019-05-29T09:14:08.426Z,98556.33
2019-05-29T09:17:14.551Z,98563.39
2019-05-29T09:20:34.059Z,98563.98
2019-05-29T09:23:25.578Z,98563.16
2019-05-29T09:26:30.321Z,98564.75
2019-05-29T09:29:34.767Z,98568.58
2019-05-29T09:32:50.527Z,98569.19
2019-05-29T09:35:45.393Z,98574.45
2019-05-29T09:38:50.317Z,98571.94
2019-05-29T09:41:54.948Z,98579.41
2019-05-29T09:44:59.394Z,98575.31
2019-05-29T09:48:04.083Z,98581.62
2019-05-29T09:51:20.807Z,98584.58
2019-05-29T09:54:14.802Z,98575.98
2019-05-29T09:57:19.560Z,98590.31
2019-05-29T10:00:24.603Z,98582.56
2019-05-29T10:03:29.038Z,98586.82
2019-05-29T10:06:33.513Z,98581.80
2019-05-29T10:09:37.950Z,98586.29
2019-05-29T10:12:42.420Z,98590.37
2019-05-29T10:15:46.873Z,98587.61
2019-05-29T10:18:51.328Z,98590.54
2019-05-29T10:21:56.714Z,98592.75
2019-05-29T10:25:02.053Z,98595.75
2019-05-29T10:28:06.497Z,98607.89
2019-05-29T10:31:11.022Z,98603.28
2019-05-29T10:34:15.543Z,98609.65
2019-05-29T10:37:20.105Z,98615.67
2019-05-29T10:40:24.882Z,98606.33
2019-05-29T10:43:34.332Z,98610.63
2019-05-29T10:46:35.779Z,98609.62
2019-05-29T10:49:40.223Z,98612.03
2019-05-29T10:52:45.761Z,98608.94
2019-05-29T10:55:50.518Z,98611.92
2019-05-29T10:58:59.491Z,98608.63
2019-05-29T11:02:01.190Z,98612.69
2019-05-29T11:05:07.887Z,98615.83
2019-05-29T11:08:12.332Z,98612.98
2019-05-29T11:11:17.089Z,98616.63
2019-05-29T11:14:21.824Z,98617.48
2019-05-29T11:17:26.274Z,98608.07
2019-05-29T11:20:30.770Z,98611.53
2019-05-29T11:23:35.228Z,98612.23
2019-05-29T11:26:39.668Z,98600.80
2019-05-29T11:29:44.130Z,98609.19
2019-05-29T11:32:50.246Z,98606.11
2019-05-29T11:36:07.358Z,98612.97
2019-05-29T11:39:06.037Z,98616.72
2019-05-29T11:42:08.321Z,98620.02
2019-05-29T11:45:13.514Z,98622.47
2019-05-29T11:48:17.968Z,98623.23
2019-05-29T11:51:22.702Z,98623.20
2019-05-29T11:54:27.156Z,98630.18
2019-05-29T11:57:31.994Z,98631.19
2019-05-29T12:00:36.497Z,98636.14
2019-05-29T12:04:05.272Z,98636.37
2019-05-29T12:06:47.121Z,98637.00
2019-05-29T12:09:51.577Z,98637.11
2019-05-29T12:12:56.041Z,98642.72
2019-05-29T12:16:00.478Z,98640.48
2019-05-29T12:19:05.480Z,98629.19
2019-05-29T12:22:10.099Z,98637.88
2019-05-29T12:25:15.243Z,98635.02
2019-05-29T12:28:19.686Z,98633.54
2019-05-29T12:31:24.129Z,98630.04
2019-05-29T12:34:28.920Z,98637.87
2019-05-29T12:37:33.653Z,98640.55
2019-05-29T12:40:38.112Z,98645.81
2019-05-29T12:43:42.910Z,98642.70
2019-05-29T12:46:47.630Z,98650.11
2019-05-29T12:49:53.573Z,98649.64
2019-05-29T12:52:59.452Z,98653.36
2019-05-29T12:56:04.753Z,98654.00
2019-05-29T12:59:09.195Z,98663.28
2019-05-29T13:02:13.674Z,98663.58
2019-05-29T13:05:20.706Z,98664.05
2019-05-29T13:08:25.033Z,98660.86
2019-05-29T13:11:29.472Z,98657.97
2019-05-29T13:14:33.927Z,98667.52
2019-05-29T13:17:38.374Z,98666.31
2019-05-29T13:20:43.160Z,98666.16
2019-05-29T13:23:47.601Z,98674.66
2019-05-29T13:26:52.052Z,98676.20
2019-05-29T13:29:59.897Z,98672.65
2019-05-29T13:33:05.278Z,98675.44
2019-05-29T13:36:08.872Z,98670.89
2019-05-29T13:39:13.313Z,98676.67
2019-05-29T13:42:17.753Z,98677.57
2019-05-29T13:45:23.507Z,98682.97
2019-05-29T13:48:27.943Z,98679.72
2019-05-29T13:51:32.726Z,98682.90
2019-05-29T13:54:37.166Z,98680.09
2019-05-29T13:57:41.609Z,98679.59
2019-05-29T14:00:46.064Z,98686.25
2019-05-29T14:03:50.868Z,98689.08
2019-05-29T14:06:55.371Z,98684.70
2019-05-29T14:10:00.885Z,98689.06
2019-05-29T14:13:07.511Z,98693.89
2019-05-29T14:16:12.969Z,98690.04
2019-05-29T14:19:17.765Z,98692.17
2019-05-29T14:22:22.218Z,98695.69
2019-05-29T14:25:26.662Z,98692.95
2019-05-29T14:28:31.103Z,98684.83
2019-05-29T14:31:35.631Z,98688.59
2019-05-29T14:34:40.402Z,98692.48
2019-05-29T14:37:44.847Z,98692.55
2019-05-29T14:40:49.298Z,98692.50
2019-05-29T14:43:54.942Z,98693.67
2019-05-29T14:46:59.405Z,98693.48
2019-05-29T14:50:06.486Z,98695.03
2019-05-29T14:53:11.388Z,98696.56
2019-05-29T14:56:16.782Z,98698.41
2019-05-29T14:59:21.288Z,98702.56
2019-05-29T15:02:25.855Z,98708.09
2019-05-29T15:05:30.307Z,98702.73
2019-05-29T15:08:35.085Z,98702.73
2019-05-29T15:11:39.544Z,98713.47
2019-05-29T15:14:44.058Z,98711.22
2019-05-29T15:17:48.762Z,98708.86
2019-05-29T15:20:53.498Z,98711.16
2019-05-29T15:23:57.935Z,98720.42
2019-05-29T15:27:02.477Z,98719.29
2019-05-29T15:30:08.813Z,98717.71
2019-05-29T15:33:14.777Z,98721.59
2019-05-29T15:36:19.442Z,98730.58
2019-05-29T15:39:23.876Z,98726.97
2019-05-29T15:42:28.333Z,98729.99
2019-05-29T15:45:32.787Z,98720.00
2019-05-29T15:48:37.510Z,98722.45
2019-05-29T15:51:42.254Z,98723.42
2019-05-29T15:54:46.682Z,98718.44
2019-05-29T15:57:51.147Z,98726.72
2019-05-29T16:00:55.599Z,98732.77
2019-05-29T16:04:00.055Z,98731.95
2019-05-29T16:07:04.551Z,98731.32
2019-05-29T16:10:13.037Z,98734.30
2019-05-29T16:13:17.363Z,98730.00
2019-05-29T16:16:21.996Z,98730.23
2019-05-29T16:19:26.439Z,98724.73
2019-05-29T16:22:30.887Z,98730.66
2019-05-29T16:25:40.141Z,98733.08
2019-05-29T16:28:41.523Z,98734.59
2019-05-29T16:31:45.975Z,98734.02
2019-05-29T16:34:50.418Z,98729.25
2019-05-29T16:37:54.861Z,98733.47
2019-05-29T16:40:59.315Z,98737.19
2019-05-29T16:44:04.867Z,98742.22
2019-05-29T16:47:09.644Z,98747.36
2019-05-29T16:50:16.688Z,98750.48
2019-05-29T16:53:21.412Z,98762.69
2019-05-29T16:56:25.879Z,98764.41
2019-05-29T16:59:30.317Z,98766.27
2019-05-29T17:02:34.778Z,98771.77
2019-05-29T17:05:39.219Z,98782.31
2019-05-29T17:08:43.670Z,98784.62
2019-05-29T17:11:48.124Z,98790.90
2019-05-29T17:14:52.571Z,98789.61
2019-05-29T17:17:57.040Z,98793.91
2019-05-29T17:21:01.491Z,98787.66
2019-05-29T17:24:06.203Z,98797.23
2019-05-29T17:27:10.678Z,98783.91
2019-05-29T17:30:21.036Z,98788.04
2019-05-29T17:33:25.495Z,98787.58
2019-05-29T17:36:29.953Z,98779.83
2019-05-29T17:39:34.413Z,98780.74
2019-05-29T17:42:38.853Z,98775.36
2019-05-29T17:45:43.297Z,98780.64
2019-05-29T17:48:47.749Z,98788.66
2019-05-29T17:51:52.233Z,98789.42
2019-05-29T17:54:56.671Z,98787.88
2019-05-29T17:58:01.132Z,98791.28
2019-05-29T18:01:05.991Z,98795.14
2019-05-29T18:04:10.615Z,98803.77
2019-05-29T18:07:16.246Z,98807.66
2019-05-29T18:10:22.814Z,98809.98
2019-05-29T18:13:27.659Z,98812.44
2019-05-29T18:16:32.107Z,98817.80
2019-05-29T18:19:36.559Z,98816.44
2019-05-29T18:22:41.011Z,98817.55
2019-05-29T18:25:45.449Z,98816.62
2019-05-29T18:28:50.161Z,98823.45
2019-05-29T18:31:54.600Z,98828.87
2019-05-29T18:34:59.097Z,98832.25
2019-05-29T18:38:03.586Z,98827.50
2019-05-29T18:41:08.034Z,98827.58
2019-05-29T18:44:12.491Z,98828.48
2019-05-29T18:47:16.945Z,98829.43
2019-05-29T18:50:21.746Z,98830.28
2019-05-29T18:53:26.995Z,98833.34
2019-05-29T18:56:32.402Z,98835.81
2019-05-29T18:59:36.844Z,98836.92
2019-05-29T19:02:41.584Z,98842.92
2019-05-29T19:05:46.037Z,98850.53
2019-05-29T19:08:50.492Z,98849.28
2019-05-29T19:11:54.937Z,98847.17
2019-05-29T19:15:01.333Z,98854.76
2019-05-29T19:18:06.402Z,98857.46
2019-05-29T19:21:13.848Z,98868.31
2019-05-29T19:24:18.264Z,98873.47
2019-05-29T19:27:34.089Z,98880.00
2019-05-29T19:30:29.458Z,98877.59
2019-05-29T19:33:34.433Z,98889.96
2019-05-29T19:36:38.906Z,98894.29
2019-05-29T19:39:43.362Z,98898.59
2019-05-29T19:42:47.932Z,98907.75
2019-05-29T19:45:53.207Z,98913.92
2019-05-29T19:48:57.662Z,98920.95
2019-05-29T19:52:02.145Z,98923.34
2019-05-29T19:55:11.103Z,98927.41
2019-05-29T19:58:16.648Z,98938.44
2019-05-29T20:01:30.608Z,98942.72
2019-05-29T20:04:28.422Z,98951.33
2019-05-29T20:07:33.284Z,98950.80
2019-05-29T20:10:38.178Z,98959.14
2019-05-29T20:13:42.756Z,98955.08
2019-05-29T20:16:47.242Z,98962.33
2019-05-29T20:19:51.698Z,98973.89
2019-05-29T20:22:56.170Z,98979.27
2019-05-29T20:26:00.650Z,98980.25
2019-05-29T20:29:08.244Z,98978.38
2019-05-29T20:32:36.757Z,98982.63
2019-05-29T20:35:28.265Z,98990.11
2019-05-29T20:38:33.125Z,98991.95
2019-05-29T20:41:39.088Z,98988.72
2019-05-29T20:44:44.347Z,98992.48
2019-05-29T20:47:49.007Z,98997.08
2019-05-29T20:50:53.781Z,98993.88
2019-05-29T20:53:58.237Z,99000.04
2019-05-29T20:57:04.606Z,99005.98
2019-05-29T21:00:15.074Z,99003.48
2019-05-29T21:03:19.550Z,99007.15
2019-05-29T21:06:24.143Z,99001.30
2019-05-29T21:09:28.575Z,99003.63
2019-05-29T21:12:33.277Z,99012.69
2019-05-29T21:15:37.917Z,99011.68
2019-05-29T21:18:42.368Z,99007.88
2019-05-29T21:21:46.825Z,99015.78
2019-05-29T21:25:01.227Z,99019.98
2019-05-29T21:27:57.502Z,99009.25
2019-05-29T21:31:01.957Z,99006.91
2019-05-29T21:34:07.089Z,99004.70
2019-05-29T21:37:11.534Z,99013.01
2019-05-29T21:40:16.619Z,99015.41
2019-05-29T21:43:21.084Z,99018.03
2019-05-29T21:46:25.532Z,99019.86
2019-05-29T21:49:49.321Z,99020.39
2019-05-29T21:52:53.779Z,99020.98
2019-05-29T21:55:58.295Z,99024.68
2019-05-29T21:59:04.287Z,99026.64
2019-05-29T22:02:10.210Z,99022.84
2019-05-29T22:05:14.790Z,99023.98
2019-05-29T22:08:19.606Z,99024.64
2019-05-29T22:11:24.056Z,99024.19
2019-05-29T22:14:29.346Z,99022.36
2019-05-29T22:17:34.845Z,99022.06
2019-05-29T22:20:40.839Z,99019.31
2019-05-29T22:23:45.624Z,99027.80
2019-05-29T22:26:51.130Z,99019.23
2019-05-29T22:29:55.719Z,99024.97
2019-05-29T22:33:01.788Z,99025.27
2019-05-29T22:36:06.392Z,99023.92
2019-05-29T22:39:10.828Z,99027.88
2019-05-29T22:42:15.287Z,99027.73
2019-05-29T22:45:20.487Z,99033.54
2019-05-29T22:48:24.955Z,99032.83
2019-05-29T22:51:29.606Z,99030.94
2019-05-29T22:54:34.035Z,99028.80
2019-05-29T22:57:38.493Z,99031.45
2019-05-29T23:00:43.952Z,99031.21
2019-05-29T23:03:48.413Z,99033.37
2019-05-29T23:06:54.115Z,99037.47
2019-05-29T23:09:58.924Z,99037.95
2019-05-29T23:13:05.568Z,99043.88
2019-05-29T23:16:09.620Z,99040.03
2019-05-29T23:19:14.349Z,99042.93
2019-05-29T23:22:18.910Z,99045.70
2019-05-29T23:25:23.616Z,99043.05
2019-05-29T23:28:28.067Z,99035.23
2019-05-29T23:31:32.515Z,99032.08
2019-05-29T23:34:37.390Z,99032.17
2019-05-29T23:37:42.127Z,99038.17
2019-05-29T23:40:46.749Z,99043.64
2019-05-29T23:43:51.197Z,99035.64
2019-05-29T23:46:55.647Z,99036.98
2019-05-29T23:50:00.116Z,99042.05
2019-05-29T23:53:04.519Z,99041.63
2019-05-29T23:56:08.957Z,99041.56
2019-05-29T23:59:13.768Z,99037.70
